Time,TemperatureF,DewpointF,PressureIn,WindDirection,WindDirectionDegrees,WindSpeedMPH,WindSpeedGustMPH,Humidity,HourlyPrecipIn,Conditions,Clouds,dailyrainin,SoftwareType,DateUTC
2013-03-23 00:00:00,41.2,28.4,29.91,SE,137,8.0,8.0,60,0.00,,,0.00,Wunderground v.1.15,2013-03-23 04:00:00,
2013-03-23 00:01:00,41.2,27.9,29.91,SE,136,8.0,21.0,59,0.00,,,0.00,Wunderground v.1.15,2013-03-23 04:01:00,
2013-03-23 00:02:00,41.2,27.9,29.91,SE,136,8.0,21.0,59,0.00,,,0.00,Wunderground v.1.15,2013-03-23 04:02:00,
2013-03-23 00:03:00,41.3,28.0,29.91,SE,136,7.0,21.0,59,0.00,,,0.00,Wunderground v.1.15,2013-03-23 04:03:00,
2013-03-23 00:08:00,41.3,28.0,29.91,SE,138,4.0,21.0,59,0.00,,,0.00,Wunderground v.1.15,2013-03-23 04:08:00,
2013-03-23 00:13:00,41.3,28.0,29.91,SE,138,1.0,21.0,59,0.00,,,0.00,Wunderground v.1.15,2013-03-23 04:13:00,
2013-03-23 00:18:00,41.3,28.4,29.91,SE,138,0.0,21.0,60,0.00,,,0.00,Wunderground v.1.15,2013-03-23 04:18:00,
2013-03-23 00:23:00,41.3,28.4,29.91,SE,138,0.0,21.0,60,0.00,,,0.00,Wunderground v.1.15,2013-03-23 04:23:00,
2013-03-23 00:29:00,41.2,28.4,29.91,SE,138,0.0,21.0,60,0.00,,,0.00,Wunderground v.1.15,2013-03-23 04:29:00,
2013-03-23 00:34:00,41.2,28.4,29.91,SE,138,0.0,21.0,60,0.00,,,0.00,Wunderground v.1.15,2013-03-23 04:34:00,
2013-03-23 00:39:00,41.1,28.3,29.91,SE,138,0.0,21.0,60,0.00,,,0.00,Wunderground v.1.15,2013-03-23 04:39:00,
2013-03-23 00:44:00,41.1,28.7,29.91,SE,138,0.0,21.0,61,0.00,,,0.00,Wunderground v.1.15,2013-03-23 04:44:00,
2013-03-23 00:49:00,41.1,28.3,29.91,SE,138,0.0,21.0,60,0.00,,,0.00,Wunderground v.1.15,2013-03-23 04:49:00,
2013-03-23 00:54:00,41.1,28.3,29.91,SE,138,0.0,21.0,60,0.00,,,0.00,Wunderground v.1.15,2013-03-23 04:54:00,
2013-03-23 01:00:00,41.1,28.3,29.90,SE,138,0.0,21.0,60,0.00,,,0.00,Wunderground v.1.15,2013-03-23 05:00:00,
2013-03-23 01:05:00,41.2,28.4,29.90,SE,138,0.0,21.0,60,0.00,,,0.00,Wunderground v.1.15,2013-03-23 05:05:00,
2013-03-23 01:10:00,41.1,28.7,29.90,SE,138,1.0,1.0,61,0.00,,,0.00,Wunderground v.1.15,2013-03-23 05:10:00,
2013-03-23 01:15:00,41.0,28.6,29.89,SE,138,1.0,21.0,61,0.00,,,0.00,Wunderground v.1.15,2013-03-23 05:15:00,
2013-03-23 01:21:00,40.9,28.5,29.89,SE,138,0.0,21.0,61,0.00,,,0.00,Wunderground v.1.15,2013-03-23 05:21:00,
2013-03-23 01:26:00,41.0,28.2,29.89,SE,138,0.0,21.0,60,0.00,,,0.00,Wunderground v.1.15,2013-03-23 05:26:00,
2013-03-23 01:32:00,41.0,28.6,29.89,SE,138,0.0,21.0,61,0.00,,,0.00,Wunderground v.1.15,2013-03-23 05:32:00,
2013-03-23 01:37:00,41.0,29.4,29.89,SE,138,0.0,21.0,63,0.00,,,0.00,Wunderground v.1.15,2013-03-23 05:37:00,
2013-03-23 01:43:00,40.9,28.9,29.89,SE,138,0.0,21.0,62,0.00,,,0.00,Wunderground v.1.15,2013-03-23 05:43:00,
2013-03-23 01:48:00,40.9,28.9,29.89,SE,138,0.0,21.0,62,0.00,,,0.00,Wunderground v.1.15,2013-03-23 05:48:00,
2013-03-23 01:53:00,40.9,28.5,29.89,SE,138,0.0,21.0,61,0.00,,,0.00,Wunderground v.1.15,2013-03-23 05:53:00,
2013-03-23 01:59:00,41.0,29.0,29.89,SE,138,0.0,21.0,62,0.00,,,0.00,Wunderground v.1.15,2013-03-23 05:59:00,
2013-03-23 02:04:00,40.9,29.3,29.89,SE,138,0.0,21.0,63,0.00,,,0.00,Wunderground v.1.15,2013-03-23 06:04:00,
2013-03-23 02:09:00,40.7,29.5,29.89,SE,138,1.0,21.0,64,0.00,,,0.00,Wunderground v.1.15,2013-03-23 06:09:00,
2013-03-23 02:15:00,40.6,29.4,29.89,SE,138,1.0,21.0,64,0.00,,,0.00,Wunderground v.1.15,2013-03-23 06:15:00,
2013-03-23 02:20:00,40.5,29.7,29.89,SE,138,0.0,21.0,65,0.00,,,0.00,Wunderground v.1.15,2013-03-23 06:20:00,
2013-03-23 02:25:00,40.4,29.9,29.89,SE,138,1.0,21.0,66,0.00,,,0.00,Wunderground v.1.15,2013-03-23 06:25:00,
2013-03-23 02:31:00,40.2,29.7,29.89,SE,138,1.0,21.0,66,0.00,,,0.00,Wunderground v.1.15,2013-03-23 06:31:00,
2013-03-23 02:36:00,40.1,30.4,29.89,SE,138,2.0,21.0,68,0.00,,,0.00,Wunderground v.1.15,2013-03-23 06:36:00,
2013-03-23 02:41:00,40.0,31.0,29.89,SE,138,4.0,21.0,70,0.00,,,0.00,Wunderground v.1.15,2013-03-23 06:41:00,
2013-03-23 02:47:00,39.8,30.1,29.88,SE,138,3.0,21.0,68,0.00,,,0.00,Wunderground v.1.15,2013-03-23 06:47:00,
2013-03-23 02:52:00,40.0,29.9,29.88,SE,138,3.0,21.0,67,0.00,,,0.00,Wunderground v.1.15,2013-03-23 06:52:00,
2013-03-23 02:57:00,40.1,30.7,29.88,SE,138,2.0,21.0,69,0.00,,,0.00,Wunderground v.1.15,2013-03-23 06:57:00,
2013-03-23 03:03:00,40.0,31.0,29.88,SE,138,0.0,21.0,70,0.00,,,0.00,Wunderground v.1.15,2013-03-23 07:03:00,
2013-03-23 03:08:00,39.8,30.5,29.88,SE,138,1.0,21.0,69,0.00,,,0.00,Wunderground v.1.15,2013-03-23 07:08:00,
2013-03-23 03:13:00,39.7,30.7,29.87,SE,138,1.0,21.0,70,0.00,,,0.00,Wunderground v.1.15,2013-03-23 07:13:00,
2013-03-23 03:18:00,39.6,31.7,29.87,SE,138,0.0,21.0,73,0.00,,,0.00,Wunderground v.1.15,2013-03-23 07:18:00,
2013-03-23 03:23:00,39.2,32.6,29.87,SE,138,0.0,21.0,77,0.00,,,0.00,Wunderground v.1.15,2013-03-23 07:23:00,
2013-03-23 03:28:00,39.1,32.5,29.86,SE,138,2.0,21.0,77,0.00,,,0.00,Wunderground v.1.15,2013-03-23 07:28:00,
2013-03-23 03:33:00,38.9,31.3,29.86,SE,138,3.0,21.0,74,0.00,,,0.00,Wunderground v.1.15,2013-03-23 07:33:00,
2013-03-23 03:38:00,38.9,31.6,29.86,SE,138,1.0,21.0,75,0.00,,,0.00,Wunderground v.1.15,2013-03-23 07:38:00,
2013-03-23 03:44:00,38.9,32.6,29.86,SE,138,0.0,21.0,78,0.00,,,0.00,Wunderground v.1.15,2013-03-23 07:44:00,
2013-03-23 03:49:00,38.9,32.6,29.86,SE,138,0.0,21.0,78,0.00,,,0.00,Wunderground v.1.15,2013-03-23 07:49:00,
2013-03-23 03:54:00,39.0,32.1,29.86,SE,138,0.0,21.0,76,0.00,,,0.00,Wunderground v.1.15,2013-03-23 07:54:00,
2013-03-23 03:59:00,39.1,31.5,29.86,SE,138,0.0,21.0,74,0.00,,,0.00,Wunderground v.1.15,2013-03-23 07:59:00,
2013-03-23 04:04:00,39.1,31.2,29.86,SE,138,0.0,21.0,73,0.00,,,0.00,Wunderground v.1.15,2013-03-23 08:04:00,
2013-03-23 04:09:00,39.2,33.2,29.86,SE,138,0.0,21.0,79,0.00,,,0.00,Wunderground v.1.15,2013-03-23 08:09:00,
2013-03-23 04:15:00,39.0,33.4,29.86,SE,138,0.0,21.0,80,0.00,,,0.00,Wunderground v.1.15,2013-03-23 08:15:00,
2013-03-23 04:20:00,38.9,33.6,29.86,SE,138,0.0,21.0,81,0.00,,,0.00,Wunderground v.1.15,2013-03-23 08:20:00,
2013-03-23 04:27:00,38.7,33.1,29.85,SE,138,0.0,21.0,80,0.00,,,0.00,Wunderground v.1.15,2013-03-23 08:27:00,
2013-03-23 04:32:00,38.6,33.9,29.85,SE,138,1.0,21.0,83,0.00,,,0.00,Wunderground v.1.15,2013-03-23 08:32:00,
2013-03-23 04:37:00,38.6,33.9,29.85,SE,138,2.0,21.0,83,0.00,,,0.00,Wunderground v.1.15,2013-03-23 08:37:00,
2013-03-23 04:42:00,38.5,33.8,29.85,SE,138,1.0,21.0,83,0.00,,,0.00,Wunderground v.1.15,2013-03-23 08:42:00,
2013-03-23 04:47:00,38.5,33.5,29.85,SE,138,0.0,21.0,82,0.00,,,0.00,Wunderground v.1.15,2013-03-23 08:47:00,
2013-03-23 04:53:00,38.5,32.9,29.85,SE,138,0.0,21.0,80,0.00,,,0.00,Wunderground v.1.15,2013-03-23 08:53:00,
2013-03-23 04:58:00,38.6,33.0,29.84,SE,138,0.0,21.0,80,0.00,,,0.00,Wunderground v.1.15,2013-03-23 08:58:00,
2013-03-23 05:03:00,38.7,33.1,29.84,SE,138,0.0,21.0,80,0.00,,,0.00,Wunderground v.1.15,2013-03-23 09:03:00,
2013-03-23 05:09:00,38.7,33.1,29.84,SE,138,0.0,21.0,80,0.00,,,0.00,Wunderground v.1.15,2013-03-23 09:09:00,
2013-03-23 05:14:00,38.8,33.2,29.84,SE,138,0.0,21.0,80,0.00,,,0.00,Wunderground v.1.15,2013-03-23 09:14:00,
2013-03-23 05:19:00,38.8,32.8,29.84,SE,138,0.0,21.0,79,0.00,,,0.00,Wunderground v.1.15,2013-03-23 09:19:00,
2013-03-23 05:24:00,38.8,32.5,29.84,SE,138,0.0,21.0,78,0.00,,,0.00,Wunderground v.1.15,2013-03-23 09:24:00,
2013-03-23 05:29:00,38.9,32.6,29.83,SE,138,0.0,21.0,78,0.00,,,0.00,Wunderground v.1.15,2013-03-23 09:29:00,
2013-03-23 05:34:00,39.0,33.0,29.83,SE,138,0.0,21.0,79,0.00,,,0.00,Wunderground v.1.15,2013-03-23 09:34:00,
2013-03-23 05:39:00,39.0,33.7,29.83,SE,138,0.0,21.0,81,0.00,,,0.00,Wunderground v.1.15,2013-03-23 09:39:00,
2013-03-23 05:45:00,38.9,33.9,29.84,SE,138,0.0,21.0,82,0.00,,,0.00,Wunderground v.1.15,2013-03-23 09:45:00,
2013-03-23 05:50:00,38.8,33.8,29.84,SE,138,0.0,21.0,82,0.00,,,0.00,Wunderground v.1.15,2013-03-23 09:50:00,
2013-03-23 05:55:00,38.8,34.4,29.84,SE,138,0.0,21.0,84,0.00,,,0.00,Wunderground v.1.15,2013-03-23 09:55:00,
2013-03-23 06:00:00,38.6,35.1,29.83,SE,138,0.0,21.0,87,0.00,,,0.01,Wunderground v.1.15,2013-03-23 10:00:00,
2013-03-23 06:06:00,38.2,35.2,29.83,SE,138,1.0,21.0,89,0.07,,,0.02,Wunderground v.1.15,2013-03-23 10:06:00,
2013-03-23 06:11:00,38.0,35.3,29.83,SE,138,1.0,21.0,90,0.07,,,0.02,Wunderground v.1.15,2013-03-23 10:11:00,
2013-03-23 06:16:00,37.9,35.5,29.86,SE,138,0.0,21.0,91,0.05,,,0.02,Wunderground v.1.15,2013-03-23 10:16:00,
2013-03-23 06:22:00,37.7,35.0,29.86,SE,138,0.0,21.0,90,0.04,,,0.03,Wunderground v.1.15,2013-03-23 10:22:00,
2013-03-23 06:27:00,37.5,34.0,29.86,SE,138,0.0,21.0,87,0.04,,,0.03,Wunderground v.1.15,2013-03-23 10:27:00,
2013-03-23 06:33:00,37.5,34.8,29.86,SE,138,0.0,21.0,90,0.06,,,0.04,Wunderground v.1.15,2013-03-23 10:33:00,
2013-03-23 06:38:00,37.5,35.1,29.86,SE,138,0.0,21.0,91,0.06,,,0.04,Wunderground v.1.15,2013-03-23 10:38:00,
2013-03-23 06:44:00,37.4,35.0,29.86,SE,138,0.0,21.0,91,0.06,,,0.05,Wunderground v.1.15,2013-03-23 10:44:00,
2013-03-23 06:49:00,37.3,35.2,29.86,SE,138,0.0,21.0,92,0.06,,,0.05,Wunderground v.1.15,2013-03-23 10:49:00,
2013-03-23 06:54:00,37.3,35.5,29.86,SE,138,0.0,21.0,93,0.05,,,0.05,Wunderground v.1.15,2013-03-23 10:54:00,
2013-03-23 06:59:00,37.2,35.4,29.86,SE,138,0.0,21.0,93,0.00,,,0.05,Wunderground v.1.15,2013-03-23 10:59:00,
2013-03-23 07:04:00,37.1,35.3,29.86,SE,140,0.0,21.0,93,0.00,,,0.06,Wunderground v.1.15,2013-03-23 11:04:00,
2013-03-23 07:10:00,37.0,35.2,29.86,SE,140,1.0,1.0,93,0.00,,,0.06,Wunderground v.1.15,2013-03-23 11:10:00,
2013-03-23 07:15:00,36.9,35.3,29.86,SE,140,1.0,21.0,94,0.07,,,0.07,Wunderground v.1.15,2013-03-23 11:15:00,
2013-03-23 07:20:00,36.9,35.3,29.86,SE,140,0.0,21.0,94,0.07,,,0.07,Wunderground v.1.15,2013-03-23 11:20:00,
2013-03-23 07:26:00,36.8,35.2,29.86,SE,140,0.0,21.0,94,0.05,,,0.08,Wunderground v.1.15,2013-03-23 11:26:00,
2013-03-23 07:31:00,36.8,35.2,29.86,SE,140,0.0,21.0,94,0.05,,,0.08,Wunderground v.1.15,2013-03-23 11:31:00,
2013-03-23 07:36:00,36.8,35.5,29.86,SE,140,0.0,21.0,95,0.05,,,0.08,Wunderground v.1.15,2013-03-23 11:36:00,
2013-03-23 07:41:00,36.8,35.5,29.86,SE,140,0.0,21.0,95,0.00,,,0.08,Wunderground v.1.15,2013-03-23 11:41:00,
2013-03-23 07:46:00,36.8,35.5,29.87,SE,140,0.0,21.0,95,0.00,,,0.08,Wunderground v.1.15,2013-03-23 11:46:00,
2013-03-23 07:52:00,36.8,35.5,29.87,SE,140,0.0,21.0,95,0.00,,,0.08,Wunderground v.1.15,2013-03-23 11:52:00,
2013-03-23 07:57:00,36.8,35.5,29.87,SE,140,0.0,21.0,95,0.00,,,0.08,Wunderground v.1.15,2013-03-23 11:57:00,
2013-03-23 08:03:00,36.9,35.6,29.87,SE,140,0.0,21.0,95,0.00,,,0.08,Wunderground v.1.15,2013-03-23 12:03:00,
2013-03-23 08:08:00,37.0,35.7,29.87,SE,140,0.0,21.0,95,0.00,,,0.08,Wunderground v.1.15,2013-03-23 12:08:00,
2013-03-23 08:14:00,37.0,35.7,29.87,SE,140,0.0,21.0,95,0.00,,,0.08,Wunderground v.1.15,2013-03-23 12:14:00,
2013-03-23 08:19:00,37.0,35.7,29.87,SE,140,0.0,21.0,95,0.00,,,0.09,Wunderground v.1.15,2013-03-23 12:19:00,
2013-03-23 08:24:00,37.1,36.1,29.87,SE,140,0.0,21.0,96,0.00,,,0.09,Wunderground v.1.15,2013-03-23 12:24:00,
2013-03-23 08:29:00,37.1,36.1,29.88,SE,140,0.0,21.0,96,0.00,,,0.09,Wunderground v.1.15,2013-03-23 12:29:00,
2013-03-23 08:34:00,37.2,36.2,29.88,SE,140,0.0,21.0,96,0.00,,,0.09,Wunderground v.1.15,2013-03-23 12:34:00,
2013-03-23 08:40:00,37.2,36.2,29.88,SE,140,0.0,21.0,96,0.00,,,0.09,Wunderground v.1.15,2013-03-23 12:40:00,
2013-03-23 08:46:00,37.2,36.2,29.89,SE,140,0.0,21.0,96,0.00,,,0.09,Wunderground v.1.15,2013-03-23 12:46:00,
2013-03-23 08:52:00,37.2,36.2,29.89,SE,140,0.0,21.0,96,0.00,,,0.09,Wunderground v.1.15,2013-03-23 12:52:00,
2013-03-23 08:57:00,37.1,36.1,29.89,SE,140,0.0,21.0,96,0.00,,,0.09,Wunderground v.1.15,2013-03-23 12:57:00,
2013-03-23 09:03:00,37.2,36.2,29.89,SE,140,0.0,21.0,96,0.00,,,0.09,Wunderground v.1.15,2013-03-23 13:03:00,
2013-03-23 09:09:00,37.3,36.3,29.89,SE,140,0.0,21.0,96,0.00,,,0.09,Wunderground v.1.15,2013-03-23 13:09:00,
2013-03-23 09:14:00,37.4,36.4,29.88,SE,140,0.0,21.0,96,0.00,,,0.09,Wunderground v.1.15,2013-03-23 13:14:00,
2013-03-23 09:19:00,37.3,36.3,29.88,SE,140,0.0,21.0,96,0.00,,,0.09,Wunderground v.1.15,2013-03-23 13:19:00,
2013-03-23 09:25:00,37.3,36.3,29.88,SE,140,0.0,21.0,96,0.00,,,0.09,Wunderground v.1.15,2013-03-23 13:25:00,
2013-03-23 09:30:00,37.3,36.3,29.88,SE,140,0.0,21.0,96,0.00,,,0.09,Wunderground v.1.15,2013-03-23 13:30:00,
2013-03-23 09:35:00,37.5,36.5,29.88,SE,140,0.0,21.0,96,0.00,,,0.09,Wunderground v.1.15,2013-03-23 13:35:00,
2013-03-23 09:40:00,37.6,36.6,29.88,SE,140,0.0,21.0,96,0.00,,,0.09,Wunderground v.1.15,2013-03-23 13:40:00,
2013-03-23 09:46:00,37.8,36.8,29.88,SE,140,1.0,21.0,96,0.00,,,0.09,Wunderground v.1.15,2013-03-23 13:46:00,
2013-03-23 09:51:00,37.9,36.9,29.88,SE,140,1.0,21.0,96,0.00,,,0.09,Wunderground v.1.15,2013-03-23 13:51:00,
2013-03-23 09:56:00,37.9,36.9,29.88,SE,140,0.0,21.0,96,0.00,,,0.09,Wunderground v.1.15,2013-03-23 13:56:00,
2013-03-23 10:01:00,38.0,37.0,29.87,SE,140,0.0,21.0,96,0.00,,,0.09,Wunderground v.1.15,2013-03-23 14:01:00,
2013-03-23 10:06:00,38.1,37.1,29.87,SE,140,2.0,21.0,96,0.00,,,0.09,Wunderground v.1.15,2013-03-23 14:06:00,
2013-03-23 10:11:00,38.1,37.1,29.87,SE,140,2.0,21.0,96,0.00,,,0.09,Wunderground v.1.15,2013-03-23 14:11:00,
2013-03-23 10:17:00,38.1,37.1,29.88,SE,140,0.0,21.0,96,0.00,,,0.09,Wunderground v.1.15,2013-03-23 14:17:00,
2013-03-23 10:22:00,38.2,37.4,29.88,SE,140,0.0,21.0,97,0.00,,,0.09,Wunderground v.1.15,2013-03-23 14:22:00,
2013-03-23 10:27:00,38.2,37.4,29.86,SE,140,0.0,21.0,97,0.00,,,0.09,Wunderground v.1.15,2013-03-23 14:27:00,
2013-03-23 10:32:00,38.3,37.5,29.86,SE,140,0.0,21.0,97,0.00,,,0.09,Wunderground v.1.15,2013-03-23 14:32:00,
2013-03-23 10:37:00,38.6,37.8,29.86,SE,140,0.0,21.0,97,0.00,,,0.09,Wunderground v.1.15,2013-03-23 14:37:00,
2013-03-23 10:43:00,38.7,37.9,29.86,SE,140,0.0,21.0,97,0.00,,,0.09,Wunderground v.1.15,2013-03-23 14:43:00,
2013-03-23 10:48:00,38.9,38.1,29.86,SE,140,0.0,21.0,97,0.00,,,0.09,Wunderground v.1.15,2013-03-23 14:48:00,
2013-03-23 10:53:00,39.1,38.3,29.86,SE,140,0.0,21.0,97,0.00,,,0.09,Wunderground v.1.15,2013-03-23 14:53:00,
2013-03-23 10:58:00,39.1,38.3,29.85,SE,140,2.0,21.0,97,0.00,,,0.09,Wunderground v.1.15,2013-03-23 14:58:00,
2013-03-23 11:04:00,39.1,38.1,29.85,SE,140,4.0,21.0,96,0.00,,,0.09,Wunderground v.1.15,2013-03-23 15:04:00,
2013-03-23 11:09:00,39.3,38.5,29.85,SE,140,2.0,21.0,97,0.00,,,0.09,Wunderground v.1.15,2013-03-23 15:09:00,
2013-03-23 11:14:00,39.5,38.5,29.85,SE,140,1.0,21.0,96,0.00,,,0.09,Wunderground v.1.15,2013-03-23 15:14:00,
2013-03-23 11:19:00,40.0,39.0,29.85,NW,312,2.0,21.0,96,0.00,,,0.09,Wunderground v.1.15,2013-03-23 15:19:00,
2013-03-23 11:24:00,40.0,38.7,29.85,NW,321,5.0,21.0,95,0.00,,,0.09,Wunderground v.1.15,2013-03-23 15:24:00,
2013-03-23 11:30:00,40.1,38.8,29.86,NW,318,6.0,6.0,95,0.00,,,0.09,Wunderground v.1.15,2013-03-23 15:30:00,
2013-03-23 11:35:00,40.2,38.9,29.86,NW,318,6.0,21.0,95,0.00,,,0.09,Wunderground v.1.15,2013-03-23 15:35:00,
2013-03-23 11:41:00,40.5,39.2,29.86,NW,316,5.0,21.0,95,0.00,,,0.09,Wunderground v.1.15,2013-03-23 15:41:00,
2013-03-23 11:46:00,40.4,38.8,29.86,NW,316,4.0,21.0,94,0.00,,,0.09,Wunderground v.1.15,2013-03-23 15:46:00,
2013-03-23 11:52:00,40.6,39.0,29.86,NW,316,3.0,21.0,94,0.00,,,0.09,Wunderground v.1.15,2013-03-23 15:52:00,
2013-03-23 11:57:00,40.7,39.1,29.86,NW,316,3.0,21.0,94,0.00,,,0.09,Wunderground v.1.15,2013-03-23 15:57:00,
2013-03-23 12:03:00,40.9,39.3,29.86,NW,316,2.0,21.0,94,0.00,,,0.09,Wunderground v.1.15,2013-03-23 16:03:00,
2013-03-23 12:08:00,41.0,39.1,29.86,NW,316,3.0,21.0,93,0.00,,,0.09,Wunderground v.1.15,2013-03-23 16:08:00,
2013-03-23 12:13:00,41.2,39.3,29.86,NW,316,5.0,21.0,93,0.00,,,0.09,Wunderground v.1.15,2013-03-23 16:13:00,
2013-03-23 12:18:00,41.2,39.3,29.86,NW,316,7.0,21.0,93,0.00,,,0.09,Wunderground v.1.15,2013-03-23 16:18:00,
2013-03-23 12:23:00,41.3,39.4,29.86,NW,316,7.0,21.0,93,0.00,,,0.09,Wunderground v.1.15,2013-03-23 16:23:00,
2013-03-23 12:28:00,41.5,39.6,29.86,NW,316,6.0,21.0,93,0.00,,,0.09,Wunderground v.1.15,2013-03-23 16:28:00,
2013-03-23 12:33:00,41.6,39.7,29.86,NW,316,4.0,21.0,93,0.00,,,0.09,Wunderground v.1.15,2013-03-23 16:33:00,
2013-03-23 12:38:00,41.7,39.5,29.86,NW,316,3.0,21.0,92,0.00,,,0.09,Wunderground v.1.15,2013-03-23 16:38:00,
2013-03-23 12:43:00,41.9,40.0,29.86,NW,316,2.0,21.0,93,0.00,,,0.09,Wunderground v.1.15,2013-03-23 16:43:00,
2013-03-23 12:48:00,42.1,40.2,29.86,NW,316,1.0,21.0,93,0.00,,,0.09,Wunderground v.1.15,2013-03-23 16:48:00,
2013-03-23 12:54:00,42.4,40.5,29.86,NW,316,1.0,21.0,93,0.00,,,0.09,Wunderground v.1.15,2013-03-23 16:54:00,
2013-03-23 12:59:00,42.7,40.5,29.85,NW,316,1.0,21.0,92,0.00,,,0.09,Wunderground v.1.15,2013-03-23 16:59:00,
2013-03-23 13:04:00,42.8,40.4,29.85,NW,316,1.0,21.0,91,0.00,,,0.09,Wunderground v.1.15,2013-03-23 17:04:00,
2013-03-23 13:10:00,43.2,41.3,29.85,NW,316,0.0,21.0,93,0.00,,,0.09,Wunderground v.1.15,2013-03-23 17:10:00,
2013-03-23 13:15:00,43.6,41.7,29.84,NW,316,0.0,21.0,93,0.00,,,0.09,Wunderground v.1.15,2013-03-23 17:15:00,
2013-03-23 13:21:00,44.0,41.5,29.84,NW,316,1.0,21.0,91,0.00,,,0.09,Wunderground v.1.15,2013-03-23 17:21:00,
2013-03-23 13:26:00,44.5,42.0,29.84,NW,316,2.0,21.0,91,0.00,,,0.09,Wunderground v.1.15,2013-03-23 17:26:00,
2013-03-23 13:31:00,45.3,43.1,29.84,NW,316,2.0,21.0,92,0.00,,,0.09,Wunderground v.1.15,2013-03-23 17:31:00,
2013-03-23 13:38:00,46.5,43.7,29.84,NW,316,5.0,21.0,90,0.00,,,0.09,Wunderground v.1.15,2013-03-23 17:38:00,
2013-03-23 13:43:00,47.3,43.6,29.84,NW,316,4.0,21.0,87,0.00,,,0.09,Wunderground v.1.15,2013-03-23 17:43:00,
2013-03-23 13:48:00,47.9,44.2,29.84,NW,316,3.0,21.0,87,0.00,,,0.09,Wunderground v.1.15,2013-03-23 17:48:00,
2013-03-23 13:53:00,48.3,44.0,29.84,NW,316,3.0,21.0,85,0.00,,,0.09,Wunderground v.1.15,2013-03-23 17:53:00,
2013-03-23 13:59:00,48.7,43.8,29.82,NW,316,3.0,21.0,83,0.00,,,0.09,Wunderground v.1.15,2013-03-23 17:59:00,
2013-03-23 14:05:00,49.0,43.7,29.82,NW,316,4.0,21.0,82,0.00,,,0.09,Wunderground v.1.15,2013-03-23 18:05:00,
2013-03-23 14:10:00,49.3,44.0,29.82,NW,316,4.0,4.0,82,0.00,,,0.09,Wunderground v.1.15,2013-03-23 18:10:00,
2013-03-23 14:15:00,49.9,45.3,29.81,NW,316,4.0,21.0,84,0.00,,,0.09,Wunderground v.1.15,2013-03-23 18:15:00,
2013-03-23 14:21:00,50.6,45.3,29.81,NW,316,4.0,21.0,82,0.00,,,0.09,Wunderground v.1.15,2013-03-23 18:21:00,
2013-03-23 14:26:00,51.5,45.5,29.81,NW,316,4.0,21.0,80,0.00,,,0.09,Wunderground v.1.15,2013-03-23 18:26:00,
2013-03-23 14:31:00,52.1,45.8,29.80,NW,316,4.0,8.0,79,0.00,,,0.09,Wunderground v.1.15,2013-03-23 18:31:00,
2013-03-23 14:36:00,52.4,45.7,29.80,NW,316,4.0,21.0,78,0.00,,,0.09,Wunderground v.1.15,2013-03-23 18:36:00,
2013-03-23 14:41:00,52.8,46.1,29.80,NW,316,4.0,21.0,78,0.00,,,0.09,Wunderground v.1.15,2013-03-23 18:41:00,
2013-03-23 14:47:00,52.4,46.1,29.79,NW,316,3.0,21.0,79,0.00,,,0.09,Wunderground v.1.15,2013-03-23 18:47:00,
2013-03-23 14:52:00,52.8,46.1,29.79,WNW,300,2.0,21.0,78,0.00,,,0.09,Wunderground v.1.15,2013-03-23 18:52:00,
2013-03-23 14:57:00,53.3,46.6,29.79,NW,325,4.0,21.0,78,0.00,,,0.09,Wunderground v.1.15,2013-03-23 18:57:00,
2013-03-23 15:02:00,54.0,46.6,29.79,NW,321,5.0,21.0,76,0.00,,,0.09,Wunderground v.1.15,2013-03-23 19:02:00,
2013-03-23 15:08:00,54.1,46.3,29.79,NW,321,4.0,21.0,75,0.00,,,0.09,Wunderground v.1.15,2013-03-23 19:08:00,
2013-03-23 15:13:00,54.4,46.6,29.78,NW,321,5.0,21.0,75,0.00,,,0.09,Wunderground v.1.15,2013-03-23 19:13:00,
2013-03-23 15:18:00,54.6,47.2,29.78,NW,321,5.0,21.0,76,0.00,,,0.09,Wunderground v.1.15,2013-03-23 19:18:00,
2013-03-23 15:23:00,54.9,46.8,29.78,NW,324,3.0,21.0,74,0.00,,,0.09,Wunderground v.1.15,2013-03-23 19:23:00,
2013-03-23 15:29:00,55.2,47.4,29.77,NW,318,7.0,21.0,75,0.00,,,0.09,Wunderground v.1.15,2013-03-23 19:29:00,
2013-03-23 15:34:00,55.0,46.5,29.77,NW,324,9.0,21.0,73,0.00,,,0.09,Wunderground v.1.15,2013-03-23 19:34:00,
2013-03-23 15:39:00,55.2,47.4,29.77,WNW,296,7.0,21.0,75,0.00,,,0.09,Wunderground v.1.15,2013-03-23 19:39:00,
2013-03-23 15:44:00,55.8,48.0,29.75,WNW,297,5.0,21.0,75,0.00,,,0.09,Wunderground v.1.15,2013-03-23 19:44:00,
2013-03-23 15:49:00,56.4,48.2,29.75,WNW,294,4.0,21.0,74,0.00,,,0.09,Wunderground v.1.15,2013-03-23 19:49:00,
2013-03-23 15:54:00,57.2,48.3,29.75,NW,311,5.0,21.0,72,0.00,,,0.09,Wunderground v.1.15,2013-03-23 19:54:00,
2013-03-23 15:59:00,58.3,48.6,29.75,NW,307,7.0,21.0,70,0.00,,,0.09,Wunderground v.1.15,2013-03-23 19:59:00,
2013-03-23 16:05:00,59.0,48.4,29.75,NW,306,7.0,21.0,68,0.00,,,0.09,Wunderground v.1.15,2013-03-23 20:05:00,
2013-03-23 16:11:00,58.5,47.6,29.75,NW,306,5.0,21.0,67,0.00,,,0.09,Wunderground v.1.15,2013-03-23 20:11:00,
2013-03-23 16:16:00,57.5,47.0,29.75,NW,306,3.0,21.0,68,0.00,,,0.09,Wunderground v.1.15,2013-03-23 20:16:00,
2013-03-23 16:21:00,57.1,47.4,29.75,NW,304,5.0,21.0,70,0.00,,,0.09,Wunderground v.1.15,2013-03-23 20:21:00,
2013-03-23 16:26:00,57.1,47.8,29.75,NW,304,7.0,21.0,71,0.00,,,0.09,Wunderground v.1.15,2013-03-23 20:26:00,
2013-03-23 16:31:00,56.9,47.2,29.74,NW,304,2.0,21.0,70,0.00,,,0.09,Wunderground v.1.15,2013-03-23 20:31:00,
2013-03-23 16:36:00,56.8,46.7,29.74,NW,325,2.0,21.0,69,0.00,,,0.09,Wunderground v.1.15,2013-03-23 20:36:00,
2013-03-23 16:42:00,56.0,47.1,29.74,NNW,331,5.0,21.0,72,0.00,,,0.09,Wunderground v.1.15,2013-03-23 20:42:00,
2013-03-23 16:48:00,55.9,47.4,29.74,NW,325,6.0,21.0,73,0.00,,,0.09,Wunderground v.1.15,2013-03-23 20:48:00,
2013-03-23 16:53:00,56.0,47.1,29.74,NW,306,8.0,21.0,72,0.00,,,0.09,Wunderground v.1.15,2013-03-23 20:53:00,
2013-03-23 16:59:00,55.4,46.9,29.75,NNW,329,10.0,21.0,73,0.00,,,0.09,Wunderground v.1.15,2013-03-23 20:59:00,
2013-03-23 17:04:00,55.1,47.0,29.75,WNW,289,8.0,21.0,74,0.00,,,0.09,Wunderground v.1.15,2013-03-23 21:04:00,
2013-03-23 17:09:00,55.3,47.5,29.75,WNW,289,5.0,21.0,75,0.00,,,0.09,Wunderground v.1.15,2013-03-23 21:09:00,
2013-03-23 17:14:00,55.5,48.4,29.74,WNW,289,2.0,21.0,77,0.00,,,0.09,Wunderground v.1.15,2013-03-23 21:14:00,
2013-03-23 17:20:00,55.6,48.2,29.74,WNW,289,1.0,1.0,76,0.00,,,0.09,Wunderground v.1.15,2013-03-23 21:20:00,
2013-03-23 17:25:00,55.7,47.9,29.74,WNW,288,3.0,21.0,75,0.00,,,0.09,Wunderground v.1.15,2013-03-23 21:25:00,
2013-03-23 17:30:00,55.6,47.4,29.73,NW,306,4.0,4.0,74,0.00,,,0.09,Wunderground v.1.15,2013-03-23 21:30:00,
2013-03-23 17:36:00,55.6,47.8,29.73,NW,306,5.0,21.0,75,0.00,,,0.09,Wunderground v.1.15,2013-03-23 21:36:00,
2013-03-23 17:41:00,55.7,47.5,29.73,NW,306,4.0,21.0,74,0.00,,,0.09,Wunderground v.1.15,2013-03-23 21:41:00,
2013-03-23 17:47:00,55.9,48.4,29.73,NW,306,2.0,21.0,76,0.00,,,0.09,Wunderground v.1.15,2013-03-23 21:47:00,
2013-03-23 17:53:00,56.0,47.8,29.73,NW,306,2.0,21.0,74,0.00,,,0.09,Wunderground v.1.15,2013-03-23 21:53:00,
2013-03-23 17:58:00,56.1,48.3,29.74,NW,306,1.0,21.0,75,0.00,,,0.09,Wunderground v.1.15,2013-03-23 21:58:00,
2013-03-23 18:04:00,56.0,47.8,29.74,NW,306,0.0,21.0,74,0.00,,,0.09,Wunderground v.1.15,2013-03-23 22:04:00,
2013-03-23 18:10:00,56.0,48.2,29.74,WNW,303,0.0,21.0,75,0.00,,,0.09,Wunderground v.1.15,2013-03-23 22:10:00,
2013-03-23 18:16:00,56.0,48.2,29.74,WNW,303,0.0,21.0,75,0.00,,,0.09,Wunderground v.1.15,2013-03-23 22:16:00,
2013-03-23 18:21:00,55.8,47.6,29.74,WNW,303,0.0,21.0,74,0.00,,,0.09,Wunderground v.1.15,2013-03-23 22:21:00,
2013-03-23 18:26:00,55.5,48.1,29.74,NW,304,0.0,21.0,76,0.00,,,0.09,Wunderground v.1.15,2013-03-23 22:26:00,
2013-03-23 18:31:00,55.6,48.5,29.74,NW,304,0.0,21.0,77,0.00,,,0.09,Wunderground v.1.15,2013-03-23 22:31:00,
2013-03-23 18:37:00,55.5,47.7,29.74,NW,304,0.0,21.0,75,0.00,,,0.09,Wunderground v.1.15,2013-03-23 22:37:00,
2013-03-23 18:42:00,55.6,48.2,29.74,NW,304,0.0,21.0,76,0.00,,,0.09,Wunderground v.1.15,2013-03-23 22:42:00,
2013-03-23 18:47:00,55.7,47.9,29.74,NW,304,0.0,21.0,75,0.00,,,0.09,Wunderground v.1.15,2013-03-23 22:47:00,
2013-03-23 18:52:00,55.5,47.7,29.74,NW,304,1.0,21.0,75,0.00,,,0.09,Wunderground v.1.15,2013-03-23 22:52:00,
2013-03-23 18:57:00,55.4,47.6,29.75,NW,304,1.0,21.0,75,0.00,,,0.09,Wunderground v.1.15,2013-03-23 22:57:00,
2013-03-23 19:03:00,55.3,47.5,29.75,NW,304,0.0,21.0,75,0.00,,,0.09,Wunderground v.1.15,2013-03-23 23:03:00,
2013-03-23 19:08:00,55.1,47.3,29.75,NW,304,0.0,21.0,75,0.00,,,0.09,Wunderground v.1.15,2013-03-23 23:08:00,
2013-03-23 19:13:00,54.9,48.2,29.74,NE,34,1.0,21.0,78,0.00,,,0.09,Wunderground v.1.15,2013-03-23 23:13:00,
2013-03-23 19:18:00,54.4,48.4,29.74,East,94,1.0,21.0,80,0.00,,,0.09,Wunderground v.1.15,2013-03-23 23:18:00,
2013-03-23 19:24:00,53.7,48.0,29.74,SE,130,3.0,21.0,81,0.00,,,0.09,Wunderground v.1.15,2013-03-23 23:24:00,
2013-03-23 19:29:00,53.2,47.8,29.75,SE,130,5.0,21.0,82,0.00,,,0.09,Wunderground v.1.15,2013-03-23 23:29:00,
2013-03-23 19:34:00,52.9,47.9,29.75,SE,130,4.0,21.0,83,0.00,,,0.09,Wunderground v.1.15,2013-03-23 23:34:00,
2013-03-23 19:39:00,52.5,47.8,29.75,SE,130,2.0,21.0,84,0.00,,,0.09,Wunderground v.1.15,2013-03-23 23:39:00,
2013-03-23 19:44:00,51.8,47.4,29.73,SE,143,3.0,21.0,85,0.00,,,0.09,Wunderground v.1.15,2013-03-23 23:44:00,
2013-03-23 19:49:00,51.2,47.5,29.73,SE,144,7.0,21.0,87,0.00,,,0.09,Wunderground v.1.15,2013-03-23 23:49:00,
2013-03-23 19:54:00,50.6,47.2,29.73,ESE,117,10.0,21.0,88,0.00,,,0.09,Wunderground v.1.15,2013-03-23 23:54:00,
2013-03-23 19:59:00,50.4,47.3,29.72,SE,128,10.0,21.0,89,0.00,,,0.09,Wunderground v.1.15,2013-03-23 23:59:00,
2013-03-23 20:05:00,50.3,47.2,29.72,SE,136,9.0,21.0,89,0.00,,,0.09,Wunderground v.1.15,2013-03-24 00:05:00,
2013-03-23 20:10:00,49.9,46.8,29.72,East,97,8.0,8.0,89,0.00,,,0.09,Wunderground v.1.15,2013-03-24 00:10:00,
2013-03-23 20:16:00,49.5,46.7,29.72,ESE,119,9.0,21.0,90,0.00,,,0.09,Wunderground v.1.15,2013-03-24 00:16:00,
2013-03-23 20:22:00,49.1,46.6,29.72,SE,126,8.0,21.0,91,0.00,,,0.09,Wunderground v.1.15,2013-03-24 00:22:00,
2013-03-23 20:28:00,48.7,46.2,29.72,SE,136,9.0,21.0,91,0.00,,,0.09,Wunderground v.1.15,2013-03-24 00:28:00,
2013-03-23 20:34:00,48.3,46.1,29.72,SE,137,13.0,21.0,92,0.00,,,0.09,Wunderground v.1.15,2013-03-24 00:34:00,
2013-03-23 20:39:00,48.1,46.2,29.72,SE,130,8.0,21.0,93,0.00,,,0.09,Wunderground v.1.15,2013-03-24 00:39:00,
2013-03-23 20:44:00,47.9,46.0,29.71,SE,133,3.0,21.0,93,0.00,,,0.09,Wunderground v.1.15,2013-03-24 00:44:00,
2013-03-23 20:49:00,47.7,45.8,29.71,ESE,119,3.0,21.0,93,0.00,,,0.09,Wunderground v.1.15,2013-03-24 00:49:00,
2013-03-23 20:55:00,47.5,45.9,29.71,SE,133,9.0,21.0,94,0.00,,,0.09,Wunderground v.1.15,2013-03-24 00:55:00,
2013-03-23 21:00:00,47.3,45.7,29.72,ESE,105,15.0,21.0,94,0.00,,,0.09,Wunderground v.1.15,2013-03-24 01:00:00,
2013-03-23 21:05:00,47.4,46.0,29.72,SE,144,18.0,21.0,95,0.00,,,0.09,Wunderground v.1.15,2013-03-24 01:05:00,
2013-03-23 21:10:00,47.5,46.1,29.72,ESE,121,18.0,19.0,95,0.00,,,0.09,Wunderground v.1.15,2013-03-24 01:10:00,
2013-03-23 21:16:00,47.4,46.0,29.72,East,101,18.0,25.0,95,0.00,,,0.09,Wunderground v.1.15,2013-03-24 01:16:00,
2013-03-23 21:21:00,47.4,46.0,29.72,SE,144,19.0,31.0,95,0.00,,,0.09,Wunderground v.1.15,2013-03-24 01:21:00,
2013-03-23 21:26:00,47.4,46.0,29.72,SSE,148,19.0,31.0,95,0.00,,,0.09,Wunderground v.1.15,2013-03-24 01:26:00,
2013-03-23 21:31:00,47.3,45.9,29.72,SE,136,18.0,21.0,95,0.00,,,0.09,Wunderground v.1.15,2013-03-24 01:31:00,
2013-03-23 21:36:00,47.2,45.8,29.72,SE,140,19.0,21.0,95,0.00,,,0.09,Wunderground v.1.15,2013-03-24 01:36:00,
2013-03-23 21:41:00,47.3,45.9,29.72,SE,142,16.0,22.0,95,0.00,,,0.09,Wunderground v.1.15,2013-03-24 01:41:00,
2013-03-23 21:47:00,47.6,46.0,29.72,SSE,165,17.0,28.0,94,0.00,,,0.09,Wunderground v.1.15,2013-03-24 01:47:00,
2013-03-23 21:52:00,47.8,45.9,29.72,SE,130,17.0,23.0,93,0.00,,,0.09,Wunderground v.1.15,2013-03-24 01:52:00,
2013-03-23 21:57:00,47.8,45.9,29.73,SE,142,19.0,28.0,93,0.00,,,0.09,Wunderground v.1.15,2013-03-24 01:57:00,
2013-03-23 22:02:00,47.6,45.7,29.73,SE,136,22.0,31.0,93,0.00,,,0.09,Wunderground v.1.15,2013-03-24 02:02:00,
2013-03-23 22:08:00,47.5,45.6,29.73,SE,132,21.0,31.0,93,0.00,,,0.09,Wunderground v.1.15,2013-03-24 02:08:00,
2013-03-23 22:13:00,47.3,45.4,29.73,SSE,147,18.0,21.0,93,0.00,,,0.09,Wunderground v.1.15,2013-03-24 02:13:00,
2013-03-23 22:18:00,47.2,45.6,29.73,ESE,117,15.0,22.0,94,0.00,,,0.09,Wunderground v.1.15,2013-03-24 02:18:00,
2013-03-23 22:24:00,47.1,45.5,29.73,SSE,153,13.0,21.0,94,0.00,,,0.09,Wunderground v.1.15,2013-03-24 02:24:00,
2013-03-23 22:29:00,47.1,45.5,29.70,SSE,149,10.0,21.0,94,0.00,,,0.09,Wunderground v.1.15,2013-03-24 02:29:00,
2013-03-23 22:34:00,47.2,45.3,29.70,SE,141,10.0,21.0,93,0.00,,,0.09,Wunderground v.1.15,2013-03-24 02:34:00,
2013-03-23 22:39:00,47.4,45.5,29.70,SE,139,14.0,24.0,93,0.00,,,0.09,Wunderground v.1.15,2013-03-24 02:39:00,
2013-03-23 22:44:00,47.4,45.2,29.70,South,169,15.0,21.0,92,0.00,,,0.09,Wunderground v.1.15,2013-03-24 02:44:00,
2013-03-23 22:49:00,47.6,45.1,29.70,ESE,115,16.0,21.0,91,0.00,,,0.09,Wunderground v.1.15,2013-03-24 02:49:00,
2013-03-23 22:55:00,47.4,44.9,29.70,SE,136,16.0,21.0,91,0.00,,,0.09,Wunderground v.1.15,2013-03-24 02:55:00,
2013-03-23 23:00:00,47.4,44.9,29.69,SE,135,17.0,21.0,91,0.00,,,0.09,Wunderground v.1.15,2013-03-24 03:00:00,
2013-03-23 23:05:00,47.7,44.6,29.69,SE,134,18.0,21.0,89,0.00,,,0.09,Wunderground v.1.15,2013-03-24 03:05:00,
2013-03-23 23:10:00,47.9,44.5,29.69,SSE,161,18.0,21.0,88,0.00,,,0.09,Wunderground v.1.15,2013-03-24 03:10:00,
2013-03-23 23:15:00,48.0,44.3,29.68,SE,142,19.0,28.0,87,0.00,,,0.09,Wunderground v.1.15,2013-03-24 03:15:00,
2013-03-23 23:20:00,47.9,43.9,29.68,SSE,167,22.0,23.0,86,0.00,,,0.09,Wunderground v.1.15,2013-03-24 03:20:00,
2013-03-23 23:25:00,47.9,43.6,29.68,ESE,122,24.0,40.0,85,0.00,,,0.09,Wunderground v.1.15,2013-03-24 03:25:00,
2013-03-23 23:31:00,48.1,43.2,29.70,SSE,163,25.0,29.0,83,0.00,,,0.09,Wunderground v.1.15,2013-03-24 03:31:00,
2013-03-23 23:36:00,48.1,42.5,29.70,SE,143,25.0,31.0,81,0.00,,,0.09,Wunderground v.1.15,2013-03-24 03:36:00,
2013-03-23 23:41:00,48.2,42.6,29.70,SE,140,24.0,24.0,81,0.00,,,0.09,Wunderground v.1.15,2013-03-24 03:41:00,
2013-03-23 23:46:00,48.3,42.4,29.70,ESE,119,21.0,24.0,80,0.00,,,0.09,Wunderground v.1.15,2013-03-24 03:46:00,
2013-03-23 23:51:00,48.2,42.6,29.70,SE,139,20.0,26.0,81,0.00,,,0.09,Wunderground v.1.15,2013-03-24 03:51:00,
2013-03-23 23:56:00,48.1,42.2,29.70,ESE,122,20.0,29.0,80,0.00,,,0.09,Wunderground v.1.15,2013-03-24 03:56:00,